createdAt,value
2022-12-28T00:04:04.084Z,0.98
2022-12-28T00:09:06.041Z,1.30
2022-12-28T00:14:07.992Z,1.02
2022-12-28T00:19:14.766Z,0.73
2022-12-28T00:24:21.326Z,0.80
2022-12-28T00:29:23.124Z,1.02
2022-12-28T00:34:25.060Z,1.08
2022-12-28T00:39:26.750Z,0.98
2022-12-28T00:44:28.750Z,1.13
2022-12-28T00:49:30.398Z,0.93
2022-12-28T00:54:32.077Z,1.38
2022-12-28T00:59:33.781Z,0.95
2022-12-28T01:04:35.432Z,1.48
2022-12-28T01:09:37.073Z,1.05
2022-12-28T01:14:38.743Z,0.70
2022-12-28T01:19:40.366Z,1.05
2022-12-28T01:24:41.995Z,0.88
2022-12-28T01:29:43.826Z,0.85
2022-12-28T01:34:45.474Z,0.77
2022-12-28T01:39:47.179Z,1.63
2022-12-28T01:44:51.364Z,1.00
2022-12-28T01:49:58.519Z,1.58
2022-12-28T01:55:07.469Z,1.55
2022-12-28T02:00:12.093Z,2.28
2022-12-28T02:05:14.304Z,1.75
2022-12-28T02:10:43.455Z,2.78
2022-12-28T02:15:38.396Z,2.15
2022-12-28T02:21:09.444Z,1.98
2022-12-28T02:26:39.252Z,2.40
2022-12-28T02:32:18.540Z,2.72
2022-12-28T02:37:23.587Z,2.53
2022-12-28T02:42:26.453Z,2.63
2022-12-28T02:47:47.286Z,2.63
2022-12-28T02:53:07.153Z,4.00
2022-12-28T02:58:31.139Z,2.92
2022-12-28T03:03:45.362Z,3.00
2022-12-28T03:09:00.740Z,2.75
2022-12-28T03:14:07.571Z,2.78
2022-12-28T03:19:29.878Z,2.58
2022-12-28T03:24:55.680Z,2.85
2022-12-28T03:30:27.746Z,2.47
2022-12-28T03:35:43.086Z,3.67
2022-12-28T03:40:49.691Z,2.65
2022-12-28T03:46:03.011Z,2.30
2022-12-28T03:51:04.801Z,3.35
2022-12-28T03:56:08.689Z,2.80
2022-12-28T04:01:11.847Z,2.45
2022-12-28T04:06:18.115Z,2.58
2022-12-28T04:11:19.979Z,2.05
2022-12-28T04:21:28.725Z,2.08
2022-12-28T04:26:30.887Z,2.38
2022-12-28T04:31:32.700Z,2.05
2022-12-28T04:36:47.313Z,2.25
2022-12-28T04:41:52.727Z,2.47
2022-12-28T04:46:54.420Z,2.65
2022-12-28T04:51:56.135Z,2.08
2022-12-28T04:56:57.770Z,2.17
2022-12-28T05:01:59.946Z,1.90
2022-12-28T05:07:01.690Z,1.83
2022-12-28T05:12:03.466Z,1.80
2022-12-28T05:17:05.659Z,1.85
2022-12-28T05:22:11.985Z,2.05
2022-12-28T05:27:13.661Z,1.48
2022-12-28T05:32:15.342Z,1.52
2022-12-28T05:37:21.790Z,1.88
2022-12-28T05:42:23.854Z,2.35
2022-12-28T05:47:25.498Z,2.90
2022-12-28T05:52:28.908Z,2.15
2022-12-28T05:57:30.527Z,1.80
2022-12-28T06:02:32.702Z,1.67
2022-12-28T06:07:34.432Z,2.45
2022-12-28T06:12:36.150Z,2.30
2022-12-28T06:17:37.983Z,2.47
2022-12-28T06:22:39.647Z,2.22
2022-12-28T06:27:41.276Z,2.10
2022-12-28T06:32:42.997Z,1.80
2022-12-28T06:37:44.743Z,1.58
2022-12-28T06:42:46.403Z,1.55
2022-12-28T06:47:48.015Z,1.73
2022-12-28T06:52:49.647Z,1.67
2022-12-28T06:57:51.316Z,1.23
2022-12-28T07:02:58.147Z,1.15
2022-12-28T07:07:59.797Z,0.88
2022-12-28T07:13:01.410Z,0.55
2022-12-28T07:18:03.073Z,0.95
2022-12-28T07:23:04.779Z,0.57
2022-12-28T07:28:06.422Z,0.57
2022-12-28T07:33:08.050Z,0.57
2022-12-28T07:38:09.658Z,1.00
2022-12-28T07:43:11.301Z,0.55
2022-12-28T07:48:12.927Z,0.52
2022-12-28T07:53:18.764Z,0.77
2022-12-28T07:58:24.061Z,0.50
2022-12-28T08:03:26.145Z,0.85
2022-12-28T08:08:27.887Z,0.55
2022-12-28T08:13:31.891Z,0.55
2022-12-28T08:18:33.943Z,0.52
2022-12-28T08:23:35.577Z,0.65
2022-12-28T08:28:38.097Z,0.65
2022-12-28T08:33:39.803Z,0.70
2022-12-28T08:38:42.882Z,1.23
2022-12-28T08:43:45.659Z,0.73
2022-12-28T08:48:48.354Z,0.77
2022-12-28T08:53:50.725Z,2.85
2022-12-28T08:58:52.440Z,3.58
2022-12-28T09:03:56.590Z,0.82
2022-12-28T09:09:07.051Z,0.80
2022-12-28T09:14:14.478Z,0.95
2022-12-28T09:19:21.397Z,1.15
2022-12-28T09:24:23.463Z,1.38
2022-12-28T09:29:25.103Z,1.88
2022-12-28T09:34:37.327Z,1.52
2022-12-28T09:39:39.952Z,0.65
2022-12-28T09:45:00.605Z,1.70
2022-12-28T09:50:02.208Z,1.30
2022-12-28T09:55:16.046Z,0.90
2022-12-28T10:00:30.491Z,1.52
2022-12-28T10:05:32.146Z,0.73
2022-12-28T10:10:33.863Z,0.88
2022-12-28T10:15:35.546Z,0.90
2022-12-28T10:20:37.329Z,0.98
2022-12-28T10:25:38.936Z,0.50
2022-12-28T10:31:08.211Z,1.23
2022-12-28T10:36:14.177Z,0.70
2022-12-28T10:41:17.134Z,0.95
2022-12-28T10:46:21.168Z,0.47
2022-12-28T10:51:24.924Z,0.70
2022-12-28T10:56:31.209Z,0.50
2022-12-28T11:01:33.022Z,0.88
2022-12-28T11:06:36.750Z,0.50
2022-12-28T11:11:38.592Z,0.57
2022-12-28T11:16:41.038Z,1.55
2022-12-28T11:21:43.828Z,1.58
2022-12-28T11:26:50.343Z,1.58
2022-12-28T11:37:15.295Z,0.52
2022-12-28T11:42:40.715Z,0.50
2022-12-28T11:47:43.064Z,1.17
2022-12-28T11:52:46.649Z,0.68
2022-12-28T11:57:48.321Z,0.65
2022-12-28T12:02:53.915Z,0.50
2022-12-28T12:07:55.563Z,0.73
2022-12-28T12:12:57.746Z,0.98
2022-12-28T12:18:03.894Z,0.75
2022-12-28T12:23:09.283Z,0.70
2022-12-28T12:28:41.070Z,0.95
2022-12-28T12:33:46.237Z,1.00
2022-12-28T12:39:16.750Z,0.38
2022-12-28T12:44:27.432Z,0.70
2022-12-28T12:49:38.101Z,0.93
2022-12-28T12:54:49.157Z,1.85
2022-12-28T13:00:14.019Z,0.80
2022-12-28T13:05:23.721Z,0.68
2022-12-28T13:10:30.955Z,0.85
2022-12-28T13:15:32.912Z,0.75
2022-12-28T13:20:34.622Z,0.60
2022-12-28T13:25:36.779Z,0.63
2022-12-28T13:30:38.586Z,1.23
2022-12-28T13:35:40.285Z,0.73
2022-12-28T13:40:50.312Z,0.77
2022-12-28T13:45:54.804Z,0.80
2022-12-28T13:50:56.809Z,1.15
2022-12-28T13:56:01.701Z,1.02
2022-12-28T14:01:06.552Z,1.30
2022-12-28T14:06:09.248Z,1.83
2022-12-28T14:11:11.002Z,0.93
2022-12-28T14:16:12.775Z,0.98
2022-12-28T14:21:15.091Z,0.80
2022-12-28T14:26:21.505Z,0.60
2022-12-28T14:31:28.291Z,0.93
2022-12-28T14:36:42.657Z,0.70
2022-12-28T14:41:45.978Z,0.70
2022-12-28T14:46:50.783Z,0.93
2022-12-28T14:51:52.391Z,1.05
2022-12-28T14:57:04.926Z,0.40
2022-12-28T15:02:07.007Z,0.88
2022-12-28T15:07:10.433Z,0.73
2022-12-28T15:12:16.169Z,0.80
2022-12-28T15:17:19.795Z,0.82
2022-12-28T15:22:21.503Z,1.55
2022-12-28T15:27:23.198Z,1.63
2022-12-28T15:32:24.789Z,1.17
2022-12-28T15:37:26.490Z,0.80
2022-12-28T15:42:28.107Z,0.93
2022-12-28T15:47:29.808Z,1.30
2022-12-28T15:52:32.153Z,0.65
2022-12-28T15:57:33.804Z,1.15
2022-12-28T16:02:35.733Z,1.02
2022-12-28T16:07:37.521Z,1.13
2022-12-28T16:12:39.232Z,0.85
2022-12-28T16:17:51.183Z,0.80
2022-12-28T16:22:56.903Z,1.40
2022-12-28T16:27:58.561Z,2.03
2022-12-28T16:33:00.221Z,2.10
2022-12-28T16:38:01.839Z,2.40
2022-12-28T16:43:07.250Z,1.90
2022-12-28T16:48:12.720Z,1.92
2022-12-28T16:53:14.463Z,2.30
2022-12-28T16:58:16.169Z,2.38
2022-12-28T17:03:17.811Z,4.13
2022-12-28T17:08:19.565Z,2.58
2022-12-28T17:13:21.237Z,1.55
2022-12-28T17:18:22.915Z,2.65
2022-12-28T17:23:24.892Z,2.03
2022-12-28T17:28:26.562Z,2.00
2022-12-28T17:33:28.213Z,2.10
2022-12-28T17:38:30.973Z,1.17
2022-12-28T17:43:32.593Z,1.27
2022-12-28T17:48:34.287Z,1.50
2022-12-28T17:53:36.328Z,1.02
2022-12-28T17:58:38.297Z,1.00
2022-12-28T18:03:40.082Z,1.20
2022-12-28T18:08:41.850Z,1.33
2022-12-28T18:13:44.047Z,0.98
2022-12-28T18:18:45.874Z,1.17
2022-12-28T18:23:48.320Z,1.25
2022-12-28T18:28:49.983Z,1.30
2022-12-28T18:33:51.671Z,1.27
2022-12-28T18:38:53.310Z,1.30
2022-12-28T18:43:56.976Z,1.20
2022-12-28T18:49:00.512Z,1.10
2022-12-28T18:54:02.127Z,1.50
2022-12-28T18:59:03.781Z,1.58
2022-12-28T19:04:07.742Z,1.20
2022-12-28T19:09:10.945Z,1.10
2022-12-28T19:14:14.671Z,1.20
2022-12-28T19:19:17.616Z,1.08
2022-12-28T19:24:19.758Z,1.10
2022-12-28T19:29:21.372Z,0.90
2022-12-28T19:34:23.087Z,1.00
2022-12-28T19:39:24.738Z,0.95
2022-12-28T19:44:26.375Z,1.42
2022-12-28T19:49:28.037Z,1.20
2022-12-28T19:54:29.704Z,1.65
2022-12-28T19:59:31.397Z,1.73
2022-12-28T20:04:33.024Z,1.42
2022-12-28T20:09:35.051Z,1.80
2022-12-28T20:14:36.705Z,1.30
2022-12-28T20:19:38.596Z,1.83
2022-12-28T20:24:40.291Z,1.80
2022-12-28T20:29:41.934Z,2.20
2022-12-28T20:34:43.557Z,2.17
2022-12-28T20:39:45.197Z,2.55
2022-12-28T20:44:46.979Z,3.03
2022-12-28T20:49:48.632Z,2.67
2022-12-28T20:54:50.353Z,2.35
2022-12-28T20:59:53.347Z,2.72
2022-12-28T21:04:55.001Z,2.60
2022-12-28T21:09:56.938Z,2.33
2022-12-28T21:14:58.592Z,2.83
2022-12-28T21:20:00.231Z,2.15
2022-12-28T21:25:01.888Z,1.98
2022-12-28T21:30:03.845Z,2.22
2022-12-28T21:35:05.790Z,2.00
2022-12-28T21:40:09.107Z,2.08
2022-12-28T21:45:11.231Z,2.45
2022-12-28T21:50:13.212Z,2.75
2022-12-28T21:55:33.454Z,2.50
2022-12-28T22:00:54.011Z,2.70
2022-12-28T22:06:02.666Z,3.03
2022-12-28T22:11:23.067Z,2.65
2022-12-28T22:16:24.801Z,2.83
2022-12-28T22:21:27.627Z,3.20
2022-12-28T22:26:29.276Z,2.72
2022-12-28T22:31:30.950Z,2.40
2022-12-28T22:36:32.777Z,2.50
2022-12-28T22:41:34.402Z,2.30
2022-12-28T22:46:36.056Z,2.20
2022-12-28T22:51:37.733Z,1.88
2022-12-28T22:56:39.350Z,2.05
2022-12-28T23:01:41.558Z,1.20
2022-12-28T23:06:43.308Z,1.13
2022-12-28T23:11:45.061Z,0.40
2022-12-28T23:16:47.383Z,0.60
2022-12-28T23:22:07.667Z,0.40
2022-12-28T23:27:21.978Z,0.75
2022-12-28T23:32:23.678Z,0.63
2022-12-28T23:37:25.415Z,0.52
2022-12-28T23:42:27.226Z,0.60
2022-12-28T23:47:28.944Z,0.68
2022-12-28T23:52:31.039Z,0.75
2022-12-28T23:57:32.663Z,0.70
